createdAt,value
2018-12-21T00:00:24.784Z,95800.23
2018-12-21T00:02:55.784Z,95805.47
2018-12-21T00:05:26.611Z,95804.09
2018-12-21T00:07:58.728Z,95795.23
2018-12-21T00:10:29.777Z,95801.70
2018-12-21T00:13:00.739Z,95807.70
2018-12-21T00:15:31.624Z,95798.70
2018-12-21T00:18:02.572Z,95805.86
2018-12-21T00:20:33.463Z,95798.80
2018-12-21T00:23:04.344Z,95794.08
2018-12-21T00:25:35.463Z,95795.73
2018-12-21T00:28:06.439Z,95794.95
2018-12-21T00:30:36.584Z,95793.30
2018-12-21T00:33:12.536Z,95792.66
2018-12-21T00:35:48.576Z,95803.61
2018-12-21T00:38:24.527Z,95803.60
2018-12-21T00:41:00.518Z,95803.86
2018-12-21T00:43:37.716Z,95807.47
2018-12-21T00:46:14.344Z,95815.34
2018-12-21T00:48:45.379Z,95815.50
2018-12-21T00:51:16.284Z,95823.36
2018-12-21T00:53:47.399Z,95819.89
2018-12-21T00:56:18.265Z,95828.04
2018-12-21T00:58:49.187Z,95827.52
2018-12-21T01:01:20.251Z,95822.53
2018-12-21T01:03:51.364Z,95823.27
2018-12-21T01:06:22.256Z,95823.08
2018-12-21T01:08:53.249Z,95819.34
2018-12-21T01:11:24.242Z,95814.63
2018-12-21T01:13:55.207Z,95809.03
2018-12-21T01:16:26.943Z,95809.08
2018-12-21T01:18:58.025Z,95806.27
2018-12-21T01:21:38.538Z,95816.89
2018-12-21T01:24:03.396Z,95809.30
2018-12-21T01:26:34.490Z,95802.46
2018-12-21T01:29:05.959Z,95798.03
2018-12-21T01:31:36.835Z,95789.44
2018-12-21T01:34:07.828Z,95784.05
2018-12-21T01:36:38.732Z,95787.98
2018-12-21T01:39:09.703Z,95795.45
2018-12-21T01:41:40.556Z,95793.05
2018-12-21T01:44:12.409Z,95795.06
2018-12-21T01:46:43.549Z,95788.37
2018-12-21T01:49:14.465Z,95785.74
2018-12-21T01:51:47.233Z,95784.13
2018-12-21T01:54:18.321Z,95787.38
2018-12-21T01:56:49.415Z,95791.90
2018-12-21T01:59:20.323Z,95787.65
2018-12-21T02:01:51.203Z,95782.17
2018-12-21T02:04:22.185Z,95786.87
2018-12-21T02:06:53.183Z,95788.29
2018-12-21T02:09:24.195Z,95788.83
2018-12-21T02:11:55.138Z,95787.50
2018-12-21T02:14:26.069Z,95785.84
2018-12-21T02:16:57.083Z,95779.80
2018-12-21T02:19:28.062Z,95784.29
2018-12-21T02:21:58.953Z,95792.19
2018-12-21T02:24:30.206Z,95792.69
2018-12-21T02:27:04.183Z,95787.00
2018-12-21T02:29:36.013Z,95774.39
2018-12-21T02:32:06.914Z,95776.48
2018-12-21T02:34:37.845Z,95777.56
2018-12-21T02:37:08.737Z,95773.56
2018-12-21T02:39:39.687Z,95767.48
2018-12-21T02:42:10.585Z,95772.34
2018-12-21T02:44:41.580Z,95769.92
2018-12-21T02:47:12.502Z,95765.17
2018-12-21T02:49:43.435Z,95766.25
2018-12-21T02:52:14.363Z,95771.77
2018-12-21T02:54:45.251Z,95775.52
2018-12-21T02:57:16.046Z,95768.59
2018-12-21T02:59:47.024Z,95752.46
2018-12-21T03:02:17.930Z,95746.55
2018-12-21T03:04:48.861Z,95739.11
2018-12-21T03:07:19.768Z,95740.84
2018-12-21T03:09:50.673Z,95741.30
2018-12-21T03:12:21.578Z,95746.92
2018-12-21T03:14:52.520Z,95743.64
2018-12-21T03:17:23.516Z,95741.14
2018-12-21T03:19:56.418Z,95724.53
2018-12-21T03:22:28.050Z,95717.29
2018-12-21T03:24:59.007Z,95724.46
2018-12-21T03:27:29.929Z,95713.67
2018-12-21T03:30:01.066Z,95724.23
2018-12-21T03:32:32.047Z,95718.01
2018-12-21T03:35:03.501Z,95714.14
2018-12-21T03:37:34.410Z,95726.48
2018-12-21T03:40:06.693Z,95720.17
2018-12-21T03:42:37.583Z,95708.96
2018-12-21T03:45:08.729Z,95722.04
2018-12-21T03:47:39.723Z,95721.95
2018-12-21T03:50:10.752Z,95719.72
2018-12-21T03:52:41.678Z,95726.59
2018-12-21T03:55:12.624Z,95723.45
2018-12-21T03:57:43.564Z,95711.76
2018-12-21T04:00:14.548Z,95717.69
2018-12-21T04:02:45.464Z,95723.13
2018-12-21T04:05:16.384Z,95719.92
2018-12-21T04:07:47.279Z,95715.05
2018-12-21T04:10:18.400Z,95723.92
2018-12-21T04:12:49.305Z,95720.94
2018-12-21T04:15:20.324Z,95726.70
2018-12-21T04:17:51.281Z,95724.63
2018-12-21T04:20:22.267Z,95718.33
2018-12-21T04:22:53.247Z,95724.18
2018-12-21T04:25:24.217Z,95717.52
2018-12-21T04:28:07.363Z,95719.16
2018-12-21T04:30:38.355Z,95720.96
2018-12-21T04:33:09.325Z,95717.41
2018-12-21T04:35:40.400Z,95714.96
2018-12-21T04:38:11.344Z,95712.61
2018-12-21T04:40:43.071Z,95701.86
2018-12-21T04:43:13.965Z,95706.36
2018-12-21T04:45:45.071Z,95704.58
2018-12-21T04:48:15.943Z,95713.34
2018-12-21T04:50:46.928Z,95711.70
2018-12-21T04:53:17.773Z,95698.75
2018-12-21T04:55:48.721Z,95693.47
2018-12-21T04:58:19.588Z,95700.70
2018-12-21T05:00:50.596Z,95711.73
2018-12-21T05:03:21.518Z,95708.11
2018-12-21T05:05:52.423Z,95693.70
2018-12-21T05:08:23.374Z,95676.04
2018-12-21T05:10:55.720Z,95680.49
2018-12-21T05:13:26.836Z,95672.19
2018-12-21T05:15:57.723Z,95674.92
2018-12-21T05:18:29.556Z,95667.59
2018-12-21T05:21:00.595Z,95662.41
2018-12-21T05:23:31.580Z,95666.81
2018-12-21T05:26:02.605Z,95677.80
2018-12-21T05:28:33.597Z,95673.81
2018-12-21T05:31:04.610Z,95665.42
2018-12-21T05:33:35.496Z,95659.43
2018-12-21T05:36:06.768Z,95660.08
2018-12-21T05:38:37.703Z,95650.09
2018-12-21T05:41:08.639Z,95659.65
2018-12-21T05:43:39.520Z,95664.41
2018-12-21T05:46:10.467Z,95669.16
2018-12-21T05:48:41.439Z,95658.51
2018-12-21T05:51:12.399Z,95654.61
2018-12-21T05:53:43.324Z,95655.73
2018-12-21T05:56:14.266Z,95650.77
2018-12-21T05:58:45.186Z,95643.55
2018-12-21T06:01:16.118Z,95649.56
2018-12-21T06:03:47.028Z,95641.93
2018-12-21T06:06:17.905Z,95632.73
2018-12-21T06:08:48.976Z,95631.48
2018-12-21T06:11:20.007Z,95630.98
2018-12-21T06:13:51.356Z,95640.31
2018-12-21T06:16:22.286Z,95631.66
2018-12-21T06:18:53.571Z,95639.61
2018-12-21T06:21:24.642Z,95631.11
2018-12-21T06:23:55.524Z,95622.67
2018-12-21T06:26:26.508Z,95630.77
2018-12-21T06:28:57.451Z,95618.75
2018-12-21T06:31:28.624Z,95613.56
2018-12-21T06:33:59.588Z,95602.50
2018-12-21T06:36:30.586Z,95602.90
2018-12-21T06:39:01.505Z,95608.86
2018-12-21T06:41:32.529Z,95616.03
2018-12-21T06:44:03.496Z,95611.29
2018-12-21T06:46:35.587Z,95603.75
2018-12-21T06:49:06.526Z,95598.94
2018-12-21T06:51:37.483Z,95604.77
2018-12-21T06:54:08.440Z,95605.94
2018-12-21T06:56:39.623Z,95595.50
2018-12-21T06:59:10.529Z,95587.48
2018-12-21T07:01:41.476Z,95578.55
2018-12-21T07:04:12.402Z,95574.79
2018-12-21T07:06:43.342Z,95563.67
2018-12-21T07:09:14.203Z,95565.67
2018-12-21T07:11:45.197Z,95568.62
2018-12-21T07:14:16.076Z,95554.64
2018-12-21T07:16:47.103Z,95562.32
2018-12-21T07:19:17.925Z,95563.80
2018-12-21T07:21:49.555Z,95561.28
2018-12-21T07:24:20.424Z,95565.81
2018-12-21T07:26:51.475Z,95560.61
2018-12-21T07:29:22.496Z,95554.81
2018-12-21T07:31:53.624Z,95552.55
2018-12-21T07:34:25.974Z,95552.80
2018-12-21T07:36:57.636Z,95554.08
2018-12-21T07:39:28.539Z,95552.21
2018-12-21T07:41:59.552Z,95541.77
2018-12-21T07:44:30.424Z,95540.45
2018-12-21T07:47:01.376Z,95527.50
2018-12-21T07:49:32.395Z,95519.36
2018-12-21T07:52:03.404Z,95521.24
2018-12-21T07:54:34.297Z,95519.33
2018-12-21T07:57:05.228Z,95517.77
2018-12-21T07:59:36.224Z,95499.00
2018-12-21T08:02:07.723Z,95501.88
2018-12-21T08:04:38.706Z,95510.06
2018-12-21T08:07:09.663Z,95517.72
2018-12-21T08:09:40.657Z,95519.78
2018-12-21T08:12:11.583Z,95517.52
2018-12-21T08:14:42.507Z,95515.05
2018-12-21T08:17:13.525Z,95510.02
2018-12-21T08:19:44.424Z,95513.78
2018-12-21T08:22:15.379Z,95531.87
2018-12-21T08:24:47.285Z,95519.34
2018-12-21T08:27:18.683Z,95512.95
2018-12-21T08:29:49.636Z,95515.48
2018-12-21T08:32:20.627Z,95511.25
2018-12-21T08:34:51.488Z,95518.20
2018-12-21T08:37:22.456Z,95504.37
2018-12-21T08:39:53.336Z,95503.09
2018-12-21T08:42:24.376Z,95504.67
2018-12-21T08:44:55.275Z,95507.81
2018-12-21T08:47:26.308Z,95506.81
2018-12-21T08:49:57.155Z,95507.23
2018-12-21T08:52:28.147Z,95508.61
2018-12-21T08:54:59.078Z,95512.48
2018-12-21T08:57:29.976Z,95518.81
2018-12-21T09:00:00.871Z,95513.17
2018-12-21T09:02:31.836Z,95513.82
2018-12-21T09:05:02.743Z,95515.56
2018-12-21T09:07:33.803Z,95516.94
2018-12-21T09:10:05.559Z,95503.70
2018-12-21T09:12:36.596Z,95502.24
2018-12-21T09:15:12.836Z,95503.23
2018-12-21T09:17:43.800Z,95484.97
2018-12-21T09:20:14.736Z,95477.05
2018-12-21T09:22:45.692Z,95486.42
2018-12-21T09:25:16.596Z,95479.30
2018-12-21T09:27:47.555Z,95474.47
2018-12-21T09:30:18.717Z,95466.42
2018-12-21T09:32:49.680Z,95467.23
2018-12-21T09:35:20.665Z,95468.47
2018-12-21T09:37:51.623Z,95465.84
2018-12-21T09:40:22.632Z,95470.52
2018-12-21T09:42:53.596Z,95467.66
2018-12-21T09:45:24.756Z,95457.38
2018-12-21T09:47:55.819Z,95459.33
2018-12-21T09:50:27.204Z,95452.88
2018-12-21T09:52:58.199Z,95452.73
2018-12-21T09:55:29.024Z,95442.03
2018-12-21T09:58:00.376Z,95437.23
2018-12-21T10:00:31.323Z,95428.55
2018-12-21T10:03:02.255Z,95424.38
2018-12-21T10:05:33.169Z,95413.73
2018-12-21T10:08:04.184Z,95411.19
2018-12-21T10:10:35.078Z,95414.28
2018-12-21T10:13:06.043Z,95406.44
2018-12-21T10:15:36.995Z,95405.24
2018-12-21T10:18:07.959Z,95395.63
2018-12-21T10:20:38.869Z,95385.90
2018-12-21T10:23:09.882Z,95384.16
2018-12-21T10:25:40.786Z,95388.21
2018-12-21T10:28:11.738Z,95379.00
2018-12-21T10:30:42.647Z,95371.44
2018-12-21T10:33:13.625Z,95369.75
2018-12-21T10:35:44.555Z,95365.39
2018-12-21T10:38:15.544Z,95358.31
2018-12-21T10:40:46.465Z,95338.98
2018-12-21T10:43:17.347Z,95344.04
2018-12-21T10:45:48.217Z,95338.04
2018-12-21T10:48:19.144Z,95331.85
2018-12-21T10:50:50.164Z,95328.42
2018-12-21T10:53:21.136Z,95324.75
2018-12-21T10:55:51.996Z,95304.32
2018-12-21T10:58:22.939Z,95322.30
2018-12-21T11:00:53.878Z,95312.80
2018-12-21T11:03:25.137Z,95299.52
2018-12-21T11:05:56.057Z,95282.45
2018-12-21T11:08:27.365Z,95279.27
2018-12-21T11:10:58.177Z,95274.17
2018-12-21T11:13:29.531Z,95279.38
2018-12-21T11:16:00.767Z,95271.72
2018-12-21T11:18:31.755Z,95255.55
2018-12-21T11:21:03.172Z,95254.77
2018-12-21T11:23:34.139Z,95258.20
2018-12-21T11:26:06.077Z,95251.13
2018-12-21T11:28:37.037Z,95245.65
2018-12-21T11:31:08.066Z,95246.14
2018-12-21T11:33:39.144Z,95230.34
2018-12-21T11:36:10.116Z,95235.84
2018-12-21T11:38:41.124Z,95240.61
2018-12-21T11:41:12.486Z,95221.66
2018-12-21T11:43:43.501Z,95203.33
2018-12-21T11:46:14.478Z,95207.73
2018-12-21T11:48:45.490Z,95218.39
2018-12-21T11:51:16.645Z,95212.65
2018-12-21T11:53:47.664Z,95210.30
2018-12-21T11:56:18.543Z,95190.50
2018-12-21T11:58:49.451Z,95198.80
2018-12-21T12:01:21.438Z,95209.20
2018-12-21T12:03:52.406Z,95178.76
2018-12-21T12:06:23.366Z,95171.93
2018-12-21T12:08:54.344Z,95165.02
2018-12-21T12:11:25.347Z,95171.69
2018-12-21T12:13:56.415Z,95152.23
2018-12-21T12:16:30.196Z,95170.05
2018-12-21T12:19:01.364Z,95146.29
2018-12-21T12:21:32.381Z,95150.55
2018-12-21T12:24:03.327Z,95146.37
2018-12-21T12:26:34.265Z,95148.80
2018-12-21T12:29:05.207Z,95129.95
2018-12-21T12:31:36.261Z,95148.67
2018-12-21T12:34:07.176Z,95131.47
2018-12-21T12:36:38.165Z,95125.95
2018-12-21T12:39:09.443Z,95130.48
2018-12-21T12:41:40.302Z,95117.38
2018-12-21T12:44:11.367Z,95117.84
2018-12-21T12:46:43.157Z,95114.78
2018-12-21T12:49:14.189Z,95111.11
2018-12-21T12:51:45.185Z,95126.45
2018-12-21T12:54:16.159Z,95126.66
2018-12-21T12:56:47.065Z,95112.21
2018-12-21T12:59:18.308Z,95111.27
2018-12-21T13:01:49.184Z,95102.09
2018-12-21T13:04:20.108Z,95098.45
2018-12-21T13:06:51.442Z,95105.88
2018-12-21T13:09:22.608Z,95112.23
2018-12-21T13:11:53.539Z,95110.08
2018-12-21T13:14:24.925Z,95126.55
2018-12-21T13:16:55.907Z,95118.30
2018-12-21T13:19:26.897Z,95107.63
2018-12-21T13:21:57.763Z,95112.72
2018-12-21T13:24:28.717Z,95118.13
2018-12-21T13:26:59.839Z,95098.44
2018-12-21T13:29:30.878Z,95091.73
2018-12-21T13:32:01.848Z,95096.58
2018-12-21T13:34:33.728Z,95082.63
2018-12-21T13:37:05.159Z,95076.84
2018-12-21T13:39:36.249Z,95080.20
2018-12-21T13:42:08.179Z,95070.70
2018-12-21T13:44:39.709Z,95081.72
2018-12-21T13:49:46.846Z,95077.34
2018-12-21T13:52:20.042Z,95063.49
2018-12-21T13:54:51.136Z,95056.27
2018-12-21T13:57:21.979Z,95045.31
2018-12-21T13:59:52.954Z,95048.50
2018-12-21T14:02:23.924Z,95046.41
2018-12-21T14:04:57.390Z,95055.37
2018-12-21T14:07:29.122Z,95046.19
2018-12-21T14:10:00.504Z,95059.06
2018-12-21T14:12:31.486Z,95060.91
2018-12-21T14:15:02.557Z,95059.80
2018-12-21T14:17:34.206Z,95062.06
2018-12-21T14:20:06.932Z,95060.84
2018-12-21T14:22:37.923Z,95055.15
2018-12-21T14:25:10.009Z,95062.08
2018-12-21T14:27:40.905Z,95060.41
2018-12-21T14:30:12.717Z,95068.31
2018-12-21T14:32:44.688Z,95061.20
2018-12-21T14:35:20.637Z,95059.05
2018-12-21T14:37:52.554Z,95074.61
2018-12-21T14:40:29.106Z,95082.52
2018-12-21T14:43:00.822Z,95075.46
2018-12-21T14:45:32.888Z,95075.13
2018-12-21T14:48:04.188Z,95075.12
2018-12-21T14:50:35.398Z,95082.53
2018-12-21T14:53:06.535Z,95093.48
2018-12-21T14:55:37.833Z,95088.66
2018-12-21T14:58:18.057Z,95087.66
2018-12-21T15:00:49.366Z,95091.42
2018-12-21T15:03:20.237Z,95096.76
2018-12-21T15:05:51.834Z,95103.20
2018-12-21T15:08:23.039Z,95104.63
2018-12-21T15:10:54.305Z,95115.17
2018-12-21T15:13:26.410Z,95121.13
2018-12-21T15:15:57.394Z,95136.44
2018-12-21T15:18:29.220Z,95138.57
2018-12-21T15:21:00.114Z,95147.08
2018-12-21T15:23:31.198Z,95150.25
2018-12-21T15:26:02.539Z,95157.81
2018-12-21T15:28:33.488Z,95154.17
2018-12-21T15:31:09.538Z,95162.80
2018-12-21T15:33:40.547Z,95159.81
2018-12-21T15:36:11.718Z,95164.94
2018-12-21T15:38:42.592Z,95182.39
2018-12-21T15:41:14.618Z,95188.73
2018-12-21T15:43:45.527Z,95206.98
2018-12-21T15:46:16.921Z,95212.55
2018-12-21T15:48:49.796Z,95216.79
2018-12-21T15:51:22.051Z,95225.76
2018-12-21T15:53:53.011Z,95225.36
2018-12-21T15:56:26.252Z,95228.16
2018-12-21T15:58:57.314Z,95223.37
2018-12-21T16:01:36.590Z,95246.23
2018-12-21T16:04:01.943Z,95241.12
2018-12-21T16:06:35.619Z,95244.16
2018-12-21T16:09:10.200Z,95233.28
2018-12-21T16:11:41.725Z,95230.87
2018-12-21T16:14:12.694Z,95250.13
2018-12-21T16:16:43.736Z,95240.77
2018-12-21T16:19:14.884Z,95246.55
2018-12-21T16:21:45.985Z,95247.55
2018-12-21T16:24:17.025Z,95242.38
2018-12-21T16:26:48.382Z,95247.66
2018-12-21T16:29:19.666Z,95259.48
2018-12-21T16:31:50.666Z,95270.78
2018-12-21T16:34:22.987Z,95271.03
2018-12-21T16:36:54.017Z,95279.44
2018-12-21T16:39:26.857Z,95287.53
2018-12-21T16:41:57.713Z,95292.14
2018-12-21T16:44:28.577Z,95293.48
2018-12-21T16:47:00.436Z,95294.69
2018-12-21T16:49:45.649Z,95296.58
2018-12-21T16:52:16.620Z,95307.31
2018-12-21T16:54:47.661Z,95307.75
2018-12-21T16:57:18.575Z,95299.98
2018-12-21T17:00:15.984Z,95299.06
2018-12-21T17:02:48.143Z,95291.99
2018-12-21T17:05:20.101Z,95288.73
2018-12-21T17:07:51.265Z,95287.67
2018-12-21T17:10:26.812Z,95283.34
2018-12-21T17:12:58.415Z,95287.30
2018-12-21T17:15:30.198Z,95279.03
2018-12-21T17:18:04.092Z,95294.89
2018-12-21T17:20:35.308Z,95284.64
2018-12-21T17:25:45.642Z,95289.92
2018-12-21T17:30:56.126Z,95282.79
2018-12-21T17:33:27.334Z,95285.19
2018-12-21T17:35:58.556Z,95282.38
2018-12-21T17:38:29.637Z,95275.61
2018-12-21T17:41:00.704Z,95264.72
2018-12-21T17:43:31.958Z,95256.17
2018-12-21T17:46:03.916Z,95259.33
2018-12-21T17:48:35.024Z,95265.80
2018-12-21T17:51:06.601Z,95254.34
2018-12-21T17:53:38.056Z,95244.69
2018-12-21T17:56:13.020Z,95242.70
2018-12-21T17:58:45.318Z,95225.16
2018-12-21T18:01:18.747Z,95238.36
2018-12-21T18:04:05.219Z,95236.92
2018-12-21T18:06:37.944Z,95253.49
2018-12-21T18:09:10.499Z,95236.14
2018-12-21T18:11:42.592Z,95235.98
2018-12-21T18:14:13.443Z,95234.22
2018-12-21T18:16:45.504Z,95224.37
2018-12-21T18:19:17.991Z,95219.53
2018-12-21T18:22:27.391Z,95215.75
2018-12-21T18:25:06.767Z,95212.13
2018-12-21T18:27:39.977Z,95210.34
2018-12-21T18:30:19.584Z,95213.01
2018-12-21T18:32:53.238Z,95219.16
2018-12-21T18:35:29.953Z,95212.41
2018-12-21T18:38:05.640Z,95220.02
2018-12-21T18:40:39.258Z,95204.63
2018-12-21T18:43:15.586Z,95203.88
2018-12-21T18:45:47.866Z,95192.10
2018-12-21T18:48:20.844Z,95208.59
2018-12-21T18:50:52.104Z,95208.82
2018-12-21T18:53:24.524Z,95196.95
2018-12-21T18:55:57.078Z,95194.27
2018-12-21T18:58:31.379Z,95197.96
2018-12-21T19:01:07.738Z,95183.48
2018-12-21T19:03:39.324Z,95194.72
2018-12-21T19:06:14.398Z,95185.59
2018-12-21T19:08:46.867Z,95175.82
2018-12-21T19:11:19.384Z,95175.56
2018-12-21T19:16:36.265Z,95149.03
2018-12-21T19:19:13.868Z,95142.59
2018-12-21T19:21:48.514Z,95148.23
2018-12-21T19:24:20.098Z,95142.48
2018-12-21T19:26:55.878Z,95154.66
2018-12-21T19:29:26.406Z,95151.48
2018-12-21T19:31:58.283Z,95164.33
2018-12-21T19:34:32.385Z,95156.89
2018-12-21T19:37:04.134Z,95181.39
2018-12-21T19:39:36.226Z,95167.90
2018-12-21T19:42:08.053Z,95160.01
2018-12-21T19:44:39.777Z,95172.77
2018-12-21T19:47:15.121Z,95164.91
2018-12-21T19:49:47.144Z,95177.74
2018-12-21T19:52:18.872Z,95175.42
2018-12-21T19:54:57.676Z,95177.91
2018-12-21T19:57:29.212Z,95172.94
2018-12-21T20:00:05.037Z,95172.65
2018-12-21T20:02:39.127Z,95179.02
2018-12-21T20:05:13.220Z,95197.22
2018-12-21T20:07:44.770Z,95182.44
2018-12-21T20:10:17.821Z,95167.46
2018-12-21T20:12:49.517Z,95184.84
2018-12-21T20:15:21.273Z,95184.93
2018-12-21T20:17:52.859Z,95184.16
2018-12-21T20:20:26.944Z,95193.08
2018-12-21T20:23:02.186Z,95187.61
2018-12-21T20:25:34.524Z,95182.15
2018-12-21T20:28:06.153Z,95195.94
2018-12-21T20:30:38.847Z,95210.29
2018-12-21T20:33:10.630Z,95202.42
2018-12-21T20:35:43.466Z,95219.53
2018-12-21T20:38:21.345Z,95216.02
2018-12-21T20:40:50.204Z,95211.77
2018-12-21T20:43:22.049Z,95221.75
2018-12-21T20:45:54.420Z,95231.41
2018-12-21T20:48:27.912Z,95224.84
2018-12-21T20:50:59.701Z,95231.22
2018-12-21T20:53:31.258Z,95237.06
2018-12-21T20:56:03.192Z,95228.38
2018-12-21T20:59:10.153Z,95236.07
2018-12-21T21:01:42.022Z,95239.08
2018-12-21T21:04:14.542Z,95239.25
2018-12-21T21:06:46.307Z,95234.79
2018-12-21T21:09:17.883Z,95227.27
2018-12-21T21:11:49.776Z,95228.12
2018-12-21T21:14:23.639Z,95227.49
2018-12-21T21:16:55.126Z,95235.80
2018-12-21T21:19:30.107Z,95241.98
2018-12-21T21:22:01.478Z,95238.88
2018-12-21T21:24:32.820Z,95245.87
2018-12-21T21:27:04.465Z,95238.48
2018-12-21T21:29:35.887Z,95244.66
2018-12-21T21:32:07.278Z,95239.84
2018-12-21T21:34:38.337Z,95246.78
2018-12-21T21:37:09.737Z,95251.05
2018-12-21T21:39:41.141Z,95247.16
2018-12-21T21:42:12.296Z,95251.39
2018-12-21T21:44:43.386Z,95241.46
2018-12-21T21:47:14.461Z,95238.97
2018-12-21T21:49:45.731Z,95236.05
2018-12-21T21:52:21.011Z,95240.53
2018-12-21T21:54:52.132Z,95242.31
2018-12-21T21:57:24.036Z,95237.11
2018-12-21T21:59:55.076Z,95232.03
2018-12-21T22:02:26.105Z,95228.48
2018-12-21T22:04:57.055Z,95220.94
2018-12-21T22:07:28.551Z,95224.66
2018-12-21T22:09:59.484Z,95223.42
2018-12-21T22:12:30.491Z,95222.04
2018-12-21T22:16:11.424Z,95228.58
2018-12-21T22:18:42.306Z,95219.23
2018-12-21T22:21:13.295Z,95223.52
2018-12-21T22:23:44.284Z,95220.20
2018-12-21T22:26:15.317Z,95208.82
2018-12-21T22:28:47.256Z,95215.87
2018-12-21T22:31:18.075Z,95221.77
2018-12-21T22:33:49.043Z,95208.01
2018-12-21T22:36:19.863Z,95211.25
2018-12-21T22:38:50.775Z,95213.41
2018-12-21T22:41:21.945Z,95215.64
2018-12-21T22:43:52.948Z,95210.75
2018-12-21T22:46:23.947Z,95207.73
2018-12-21T22:48:54.902Z,95203.31
2018-12-21T22:51:25.852Z,95200.28
2018-12-21T22:53:56.776Z,95206.02
2018-12-21T22:56:27.723Z,95184.11
2018-12-21T22:58:58.667Z,95189.16
2018-12-21T23:01:29.885Z,95187.56
2018-12-21T23:04:00.803Z,95185.78
2018-12-21T23:06:31.675Z,95190.64
2018-12-21T23:09:02.916Z,95194.25
2018-12-21T23:11:33.816Z,95193.88
2018-12-21T23:14:04.804Z,95198.92
2018-12-21T23:16:35.685Z,95199.17
2018-12-21T23:19:06.584Z,95205.47
2018-12-21T23:21:37.524Z,95210.89
2018-12-21T23:24:08.504Z,95202.25
2018-12-21T23:26:39.383Z,95195.07
2018-12-21T23:29:10.324Z,95191.89
2018-12-21T23:31:44.960Z,95190.70
2018-12-21T23:34:15.863Z,95189.85
2018-12-21T23:36:46.783Z,95185.49
2018-12-21T23:39:17.643Z,95187.34
2018-12-21T23:41:48.605Z,95190.53
2018-12-21T23:44:19.566Z,95188.25
2018-12-21T23:46:50.414Z,95191.55
2018-12-21T23:49:21.346Z,95181.66
2018-12-21T23:51:52.217Z,95187.51
2018-12-21T23:54:23.082Z,95183.12
2018-12-21T23:56:53.966Z,95190.83
2018-12-21T23:59:24.897Z,95187.72
